aviador You're here:

ZUCK Decoded Metar

CHONGQING in CHINA
Report Time2018-02-25 11:00:00
UTC Time2018-02-25 11:24:51
Flight Rules vfr VFR
WindVRB at 2 kt
Visibility9999 m
Phenomena:N/A
Clouds:N/A
Expected CloudBase > 4,000 ft AGL from Temp-Dew spread
CeilingNone
Temp16°C (ISA +3)
Dew Point06°C (52% RH)
AAT14.4°C
QNH1018 hPa
Density Alt1,503 ft
Elevation1,152 ft
Report Wrong Elevation
Raw Report
METAR ZUCK 251100Z VRB01MPS CAVOK 16/06 Q1018 NOSIG=

Extra information for ZUCK:More info

Metar Taf Metar & Taf Last 4 Metars F.Rules Stats Wind Profile Meteogram Temp Stats Airport Information Weather charts Add Link Nearby VenuesMetar ALERT Operation Metar Decoded Social comments